createdAt,value
2017-01-15T00:00:43.767Z,2.24
2017-01-15T00:01:44.567Z,2.26
2017-01-15T00:02:45.298Z,2.22
2017-01-15T00:03:46.048Z,2.26
2017-01-15T00:04:46.803Z,2.25
2017-01-15T00:05:47.543Z,2.25
2017-01-15T00:06:48.310Z,2.25
2017-01-15T00:07:49.052Z,2.28
2017-01-15T00:08:49.813Z,2.24
2017-01-15T00:09:50.575Z,2.2
2017-01-15T00:10:51.358Z,2.25
2017-01-15T00:11:52.145Z,2.2
2017-01-15T00:12:52.901Z,2.1
2017-01-15T00:13:53.722Z,2.11
2017-01-15T00:14:54.479Z,2.14
2017-01-15T00:15:55.240Z,2.11
2017-01-15T00:16:55.992Z,2.08
2017-01-15T00:17:56.746Z,2.14
2017-01-15T00:18:57.503Z,2.11
2017-01-15T00:19:58.236Z,2.1
2017-01-15T00:20:58.983Z,2.08
2017-01-15T00:21:59.749Z,2.04
2017-01-15T00:23:00.476Z,2.13
2017-01-15T00:24:01.239Z,1.88
2017-01-15T00:25:01.984Z,2.04
2017-01-15T00:26:02.740Z,1.99
2017-01-15T00:27:03.498Z,2.06
2017-01-15T00:28:04.238Z,2.07
2017-01-15T00:29:04.976Z,1.92
2017-01-15T00:30:05.748Z,1.95
2017-01-15T00:31:06.547Z,2.02
2017-01-15T00:32:07.304Z,2.02
2017-01-15T00:33:08.066Z,1.89
2017-01-15T00:34:08.808Z,2.02
2017-01-15T00:35:09.639Z,1.95
2017-01-15T00:36:10.436Z,1.95
2017-01-15T00:37:11.186Z,2
2017-01-15T00:38:11.941Z,2.08
2017-01-15T00:39:12.671Z,2.04
2017-01-15T00:40:13.419Z,2.08
2017-01-15T00:41:14.194Z,2.07
2017-01-15T00:42:14.961Z,2.11
2017-01-15T00:43:15.717Z,2.08
2017-01-15T00:44:16.508Z,2.11
2017-01-15T00:45:17.274Z,2.11
2017-01-15T00:46:18.025Z,2.17
2017-01-15T00:47:18.761Z,2.13
2017-01-15T00:48:19.529Z,2.1
2017-01-15T00:49:20.276Z,2.1
2017-01-15T00:50:21.023Z,2.07
2017-01-15T00:51:21.772Z,2.14
2017-01-15T00:52:22.539Z,2.1
2017-01-15T00:53:23.304Z,2.1
2017-01-15T00:54:24.059Z,2.15
2017-01-15T00:55:24.819Z,2.11
2017-01-15T00:56:25.570Z,2.2
2017-01-15T00:57:26.312Z,2.26
2017-01-15T00:58:27.062Z,2.15
2017-01-15T00:59:27.822Z,2.13
2017-01-15T01:00:28.554Z,2.13
2017-01-15T01:01:29.304Z,2.13
2017-01-15T01:02:30.051Z,2.22
2017-01-15T01:03:30.833Z,2.18
2017-01-15T01:04:31.623Z,2.25
2017-01-15T01:05:32.379Z,2.25
2017-01-15T01:06:33.140Z,2.29
2017-01-15T01:07:33.867Z,2.31
2017-01-15T01:08:34.617Z,2.31
2017-01-15T01:09:35.371Z,2.32
2017-01-15T01:10:36.108Z,2.31
2017-01-15T01:11:36.852Z,2.33
2017-01-15T01:12:37.616Z,2.26
2017-01-15T01:13:38.371Z,2.32
2017-01-15T01:14:39.120Z,2.29
2017-01-15T01:15:39.881Z,2.32
2017-01-15T01:16:40.684Z,2.29
2017-01-15T01:17:41.445Z,2.32
2017-01-15T01:18:42.190Z,2.33
2017-01-15T01:19:42.956Z,2.31
2017-01-15T01:20:43.684Z,2.29
2017-01-15T01:21:44.432Z,2.22
2017-01-15T01:22:45.165Z,2.25
2017-01-15T01:23:45.935Z,2.29
2017-01-15T01:24:46.688Z,2.29
2017-01-15T01:25:47.430Z,2.32
2017-01-15T01:26:48.180Z,2.35
2017-01-15T01:27:48.935Z,2.29
2017-01-15T01:28:49.672Z,2.26
2017-01-15T01:29:50.440Z,2.29
2017-01-15T01:30:51.221Z,2.31
2017-01-15T01:31:51.962Z,2.29
2017-01-15T01:32:52.700Z,2.35
2017-01-15T01:33:53.492Z,2.35
2017-01-15T01:34:54.240Z,2.31
2017-01-15T01:35:54.986Z,2.33
2017-01-15T01:36:55.728Z,2.26
2017-01-15T01:37:56.478Z,2.35
2017-01-15T01:38:57.234Z,2.39
2017-01-15T01:39:57.975Z,2.28
2017-01-15T01:40:58.724Z,2.26
2017-01-15T01:41:59.460Z,2.26
2017-01-15T01:43:00.235Z,2.28
2017-01-15T01:44:01.003Z,2.33
2017-01-15T01:45:01.742Z,2.33
2017-01-15T01:46:02.518Z,2.29
2017-01-15T01:47:03.291Z,2.29
2017-01-15T01:48:04.039Z,2.35
2017-01-15T01:49:04.770Z,2.35
2017-01-15T01:50:05.526Z,2.33
2017-01-15T01:51:06.272Z,2.32
2017-01-15T01:52:07.025Z,2.38
2017-01-15T01:53:07.788Z,2.35
2017-01-15T01:54:08.553Z,2.38
2017-01-15T01:55:09.377Z,2.32
2017-01-15T01:56:10.099Z,2.38
2017-01-15T01:57:10.849Z,2.36
2017-01-15T01:58:11.588Z,2.39
2017-01-15T01:59:12.335Z,2.35
2017-01-15T02:00:13.093Z,2.36
2017-01-15T02:01:13.882Z,2.38
2017-01-15T02:02:14.639Z,2.36
2017-01-15T02:03:15.416Z,2.35
2017-01-15T02:04:16.161Z,2.38
2017-01-15T02:05:16.906Z,2.39
2017-01-15T02:06:17.654Z,2.36
2017-01-15T02:07:18.405Z,2.36
2017-01-15T02:08:19.139Z,2.35
2017-01-15T02:09:19.893Z,2.31
2017-01-15T02:10:20.632Z,2.36
2017-01-15T02:11:21.394Z,2.28
2017-01-15T02:12:22.139Z,2.29
2017-01-15T02:13:22.919Z,2.26
2017-01-15T02:14:23.675Z,2.35
2017-01-15T02:15:24.416Z,2.31
2017-01-15T02:16:25.154Z,2.32
2017-01-15T02:17:25.918Z,2.33
2017-01-15T02:18:26.672Z,2.35
2017-01-15T02:19:27.428Z,2.29
2017-01-15T02:20:28.218Z,2.29
2017-01-15T02:21:28.962Z,2.22
2017-01-15T02:22:29.704Z,2.28
2017-01-15T02:23:30.471Z,2.25
2017-01-15T02:24:31.226Z,2.26
2017-01-15T02:25:31.997Z,2.28
2017-01-15T02:26:32.759Z,2.25
2017-01-15T02:27:33.509Z,2.25
2017-01-15T02:28:34.247Z,2.26
2017-01-15T02:29:35.006Z,2.17
2017-01-15T02:30:35.762Z,2.2
2017-01-15T02:31:36.517Z,2.28
2017-01-15T02:32:37.247Z,2.22
2017-01-15T02:33:38.003Z,2.17
2017-01-15T02:34:38.748Z,2.29
2017-01-15T02:35:39.501Z,2.25
2017-01-15T02:36:46.904Z,2.2
2017-01-15T02:37:47.653Z,2.18
2017-01-15T02:38:48.385Z,2.13
2017-01-15T02:39:49.126Z,2.15
2017-01-15T02:40:49.867Z,2.18
2017-01-15T02:41:50.624Z,2.15
2017-01-15T02:42:51.380Z,2.13
2017-01-15T02:43:52.188Z,2.17
2017-01-15T02:44:52.927Z,2.14
2017-01-15T02:45:53.684Z,2.08
2017-01-15T02:46:54.443Z,2.18
2017-01-15T02:47:55.197Z,2.2
2017-01-15T02:48:55.960Z,2.2
2017-01-15T02:49:56.704Z,2.15
2017-01-15T02:50:57.477Z,2.13
2017-01-15T02:51:58.375Z,2.13
2017-01-15T02:52:59.981Z,2.15
2017-01-15T02:54:01.089Z,2.14
2017-01-15T02:55:01.837Z,2.18
2017-01-15T02:56:02.582Z,2.22
2017-01-15T02:57:03.348Z,2.22
2017-01-15T02:58:04.100Z,2.28
2017-01-15T02:59:04.865Z,2.25
2017-01-15T03:00:05.645Z,2.17
2017-01-15T03:01:06.382Z,2.24
2017-01-15T03:02:07.129Z,2.29
2017-01-15T03:03:07.885Z,2.22
2017-01-15T03:04:08.624Z,2.2
2017-01-15T03:05:09.383Z,2.22
2017-01-15T03:06:10.123Z,2.24
2017-01-15T03:07:10.883Z,2.28
2017-01-15T03:08:11.623Z,2.15
2017-01-15T03:09:12.374Z,2.18
2017-01-15T03:10:13.134Z,2.26
2017-01-15T03:11:13.880Z,2.24
2017-01-15T03:12:14.677Z,2.15
2017-01-15T03:13:15.423Z,2.2
2017-01-15T03:14:16.178Z,2.22
2017-01-15T03:15:16.929Z,2.26
2017-01-15T03:16:17.681Z,2.17
2017-01-15T03:17:18.406Z,2.1
2017-01-15T03:18:19.170Z,2.11
2017-01-15T03:19:19.926Z,2.08
2017-01-15T03:20:20.667Z,2.11
2017-01-15T03:21:21.419Z,2.1
2017-01-15T03:22:22.187Z,2.11
2017-01-15T03:23:22.934Z,2.13
2017-01-15T03:24:23.691Z,2.02
2017-01-15T03:25:24.441Z,2.07
2017-01-15T03:26:25.210Z,2.13
2017-01-15T03:27:25.952Z,2.08
2017-01-15T03:28:26.704Z,2
2017-01-15T03:29:27.504Z,2.07
2017-01-15T03:30:28.286Z,2.04
2017-01-15T03:31:29.050Z,2.11
2017-01-15T03:32:29.802Z,1.97
2017-01-15T03:33:30.546Z,2.04
2017-01-15T03:34:31.317Z,2
2017-01-15T03:35:32.059Z,1.92
2017-01-15T03:36:32.819Z,1.95
2017-01-15T03:37:33.569Z,1.81
2017-01-15T03:38:34.331Z,1.88
2017-01-15T03:39:35.060Z,1.87
2017-01-15T03:40:35.820Z,1.87
2017-01-15T03:41:36.581Z,1.74
2017-01-15T03:42:37.333Z,1.78
2017-01-15T03:43:38.086Z,1.8
2017-01-15T03:44:38.836Z,1.78
2017-01-15T03:45:39.586Z,1.77
2017-01-15T03:46:40.332Z,1.78
2017-01-15T03:47:41.084Z,1.77
2017-01-15T03:48:41.831Z,1.78
2017-01-15T03:49:42.578Z,1.78
2017-01-15T03:50:43.323Z,1.74
2017-01-15T03:51:44.095Z,1.74
2017-01-15T03:52:44.874Z,1.7
2017-01-15T03:53:45.612Z,1.66
2017-01-15T03:54:46.361Z,1.62
2017-01-15T03:55:47.131Z,1.62
2017-01-15T03:56:47.864Z,1.58
2017-01-15T03:57:48.668Z,1.63
2017-01-15T03:58:49.408Z,1.62
2017-01-15T03:59:50.209Z,1.62
2017-01-15T04:00:50.969Z,1.71
2017-01-15T04:01:51.735Z,1.62
2017-01-15T04:02:52.504Z,1.66
2017-01-15T04:03:53.242Z,1.6
2017-01-15T04:04:54.007Z,1.62
2017-01-15T04:05:54.741Z,1.59
2017-01-15T04:06:55.494Z,1.6
2017-01-15T04:07:56.233Z,1.52
2017-01-15T04:08:56.983Z,1.49
2017-01-15T04:09:57.731Z,1.5
2017-01-15T04:10:58.506Z,1.5
2017-01-15T04:11:59.240Z,1.52
2017-01-15T04:13:00.010Z,1.52
2017-01-15T04:14:00.786Z,1.52
2017-01-15T04:15:01.529Z,1.53
2017-01-15T04:16:02.274Z,1.58
2017-01-15T04:17:03.022Z,1.55
2017-01-15T04:18:03.784Z,1.5
2017-01-15T04:19:04.622Z,1.48
2017-01-15T04:20:05.373Z,1.38
2017-01-15T04:21:06.159Z,1.4
2017-01-15T04:22:06.885Z,1.4
2017-01-15T04:23:07.631Z,1.44
2017-01-15T04:24:08.395Z,1.42
2017-01-15T04:25:09.164Z,1.38
2017-01-15T04:26:09.900Z,1.41
2017-01-15T04:27:10.654Z,1.42
2017-01-15T04:28:11.411Z,1.41
2017-01-15T04:29:12.154Z,1.49
2017-01-15T04:30:12.887Z,1.41
2017-01-15T04:31:13.650Z,1.48
2017-01-15T04:32:14.396Z,1.42
2017-01-15T04:33:15.157Z,1.42
2017-01-15T04:34:15.901Z,1.49
2017-01-15T04:35:16.648Z,1.44
2017-01-15T04:36:17.406Z,1.48
2017-01-15T04:37:18.149Z,1.58
2017-01-15T04:38:18.893Z,1.53
2017-01-15T04:39:19.633Z,1.42
2017-01-15T04:40:20.391Z,1.42
2017-01-15T04:41:21.149Z,1.48
2017-01-15T04:42:21.894Z,1.56
2017-01-15T04:43:22.638Z,1.41
2017-01-15T04:44:23.381Z,1.45
2017-01-15T04:45:24.151Z,1.53
2017-01-15T04:46:24.893Z,1.5
2017-01-15T04:47:25.664Z,1.42
2017-01-15T04:48:26.411Z,1.44
2017-01-15T04:49:27.166Z,1.41
2017-01-15T04:50:27.933Z,1.45
2017-01-15T04:51:28.685Z,1.42
2017-01-15T04:52:29.402Z,1.42
2017-01-15T04:53:30.184Z,1.44
2017-01-15T04:54:30.916Z,1.56
2017-01-15T04:55:31.676Z,1.58
2017-01-15T04:56:32.426Z,1.52
2017-01-15T04:57:33.179Z,1.53
2017-01-15T04:58:33.925Z,1.55
2017-01-15T04:59:34.695Z,1.5
2017-01-15T05:00:35.461Z,1.52
2017-01-15T05:01:36.258Z,1.52
2017-01-15T05:02:37.030Z,1.52
2017-01-15T05:03:37.819Z,1.53
2017-01-15T05:04:38.567Z,1.58
2017-01-15T05:05:39.852Z,1.55
2017-01-15T05:06:40.680Z,1.5
2017-01-15T05:07:41.510Z,1.52
2017-01-15T05:08:42.271Z,1.52
2017-01-15T05:09:43.032Z,1.53
2017-01-15T05:10:43.796Z,1.5
2017-01-15T05:11:44.581Z,1.44
2017-01-15T05:12:45.324Z,1.45
2017-01-15T05:13:46.181Z,1.45
2017-01-15T05:14:46.897Z,1.58
2017-01-15T05:15:47.661Z,1.53
2017-01-15T05:16:48.399Z,1.42
2017-01-15T05:17:49.141Z,1.45
2017-01-15T05:18:49.894Z,1.44
2017-01-15T05:19:50.686Z,1.44
2017-01-15T05:20:51.641Z,1.37
2017-01-15T05:21:52.231Z,1.41
2017-01-15T05:22:52.981Z,1.37
2017-01-15T05:23:53.733Z,1.35
2017-01-15T05:24:54.491Z,1.32
2017-01-15T05:25:55.226Z,1.4
2017-01-15T05:26:55.992Z,1.35
2017-01-15T05:27:56.741Z,1.42
2017-01-15T05:28:57.591Z,1.41
2017-01-15T05:29:58.354Z,1.34
2017-01-15T05:30:59.076Z,1.31
2017-01-15T05:31:59.834Z,1.48
2017-01-15T05:33:00.779Z,1.38
2017-01-15T05:34:01.375Z,1.5
2017-01-15T05:35:02.124Z,1.32
2017-01-15T05:36:02.876Z,1.4
2017-01-15T05:37:03.641Z,1.45
2017-01-15T05:38:04.437Z,1.42
2017-01-15T05:39:05.181Z,1.49
2017-01-15T05:40:05.937Z,1.45
2017-01-15T05:41:06.696Z,1.49
2017-01-15T05:42:07.460Z,1.55
2017-01-15T05:43:08.267Z,1.44
2017-01-15T05:44:08.995Z,1.53
2017-01-15T05:45:09.749Z,1.55
2017-01-15T05:46:10.536Z,1.55
2017-01-15T05:47:11.318Z,1.55
2017-01-15T05:48:12.076Z,1.6
2017-01-15T05:49:12.829Z,1.67
2017-01-15T05:50:13.604Z,1.67
2017-01-15T05:51:14.359Z,1.5
2017-01-15T05:52:15.134Z,1.52
2017-01-15T05:53:15.928Z,1.55
2017-01-15T05:54:16.675Z,1.58
2017-01-15T05:55:17.432Z,1.58
2017-01-15T05:56:18.191Z,1.52
2017-01-15T05:57:18.965Z,1.56
2017-01-15T05:58:19.728Z,1.48
2017-01-15T05:59:20.485Z,1.44
2017-01-15T06:00:21.251Z,1.49
2017-01-15T06:01:21.993Z,1.56
2017-01-15T06:02:22.745Z,1.44
2017-01-15T06:03:23.508Z,1.49
2017-01-15T06:04:24.271Z,1.49
2017-01-15T06:05:25.010Z,1.44
2017-01-15T06:06:25.768Z,1.44
2017-01-15T06:07:26.514Z,1.49
2017-01-15T06:08:27.277Z,1.44
2017-01-15T06:09:28.041Z,1.55
2017-01-15T06:10:28.780Z,1.52
2017-01-15T06:11:29.539Z,1.53
2017-01-15T06:12:30.293Z,1.52
2017-01-15T06:13:31.046Z,1.58
2017-01-15T06:14:31.782Z,1.52
2017-01-15T06:15:32.538Z,1.55
2017-01-15T06:16:33.271Z,1.55
2017-01-15T06:17:34.025Z,1.55
2017-01-15T06:18:34.789Z,1.55
2017-01-15T06:19:35.507Z,1.53
2017-01-15T06:20:36.265Z,1.55
2017-01-15T06:21:37.008Z,1.56
2017-01-15T06:22:37.748Z,1.52
2017-01-15T06:23:38.505Z,1.55
2017-01-15T06:24:39.253Z,1.55
2017-01-15T06:25:40.023Z,1.52
2017-01-15T06:26:40.780Z,1.55
2017-01-15T06:27:41.528Z,1.55
2017-01-15T06:28:42.288Z,1.52
2017-01-15T06:29:43.035Z,1.49
2017-01-15T06:30:43.812Z,1.45
2017-01-15T06:31:44.570Z,1.56
2017-01-15T06:32:45.317Z,1.49
2017-01-15T06:33:46.095Z,1.49
2017-01-15T06:34:46.849Z,1.48
2017-01-15T06:35:47.599Z,1.45
2017-01-15T06:36:48.341Z,1.5
2017-01-15T06:37:49.109Z,1.58
2017-01-15T06:38:49.869Z,1.41
2017-01-15T06:39:50.612Z,1.44
2017-01-15T06:40:51.353Z,1.53
2017-01-15T06:41:52.107Z,1.5
2017-01-15T06:42:52.873Z,1.4
2017-01-15T06:43:53.624Z,1.48
2017-01-15T06:44:54.355Z,1.37
2017-01-15T06:45:55.157Z,1.41
2017-01-15T06:46:55.900Z,1.45
2017-01-15T06:47:56.645Z,1.49
2017-01-15T06:48:57.423Z,1.42
2017-01-15T06:49:58.172Z,1.32
2017-01-15T06:50:58.928Z,1.32
2017-01-15T06:51:59.684Z,1.35
2017-01-15T06:53:00.445Z,1.28
2017-01-15T06:54:01.220Z,1.28
2017-01-15T06:55:01.960Z,1.3
2017-01-15T06:56:02.722Z,1.24
2017-01-15T06:57:03.474Z,1.3
2017-01-15T06:58:04.244Z,1.28
2017-01-15T06:59:04.992Z,1.3
2017-01-15T07:00:05.749Z,1.26
2017-01-15T07:01:06.486Z,1.22
2017-01-15T07:02:07.236Z,1.24
2017-01-15T07:03:07.990Z,1.2
2017-01-15T07:04:08.742Z,1.24
2017-01-15T07:05:09.478Z,1.17
2017-01-15T07:06:10.243Z,1.22
2017-01-15T07:07:10.999Z,1.23
2017-01-15T07:08:11.745Z,1.24
2017-01-15T07:09:12.511Z,1.22
2017-01-15T07:10:13.275Z,1.28
2017-01-15T07:11:14.058Z,1.22
2017-01-15T07:12:14.803Z,1.28
2017-01-15T07:13:15.545Z,1.19
2017-01-15T07:14:16.303Z,1.2
2017-01-15T07:15:17.050Z,1.34
2017-01-15T07:16:17.790Z,1.28
2017-01-15T07:17:18.583Z,1.24
2017-01-15T07:18:19.329Z,1.28
2017-01-15T07:19:20.086Z,1.3
2017-01-15T07:20:20.833Z,1.24
2017-01-15T07:21:21.602Z,1.34
2017-01-15T07:22:22.422Z,1.31
2017-01-15T07:23:23.204Z,1.41
2017-01-15T07:24:23.963Z,1.34
2017-01-15T07:25:24.726Z,1.28
2017-01-15T07:26:25.501Z,1.34
2017-01-15T07:27:26.240Z,1.38
2017-01-15T07:28:26.987Z,1.35
2017-01-15T07:29:27.751Z,1.42
2017-01-15T07:30:28.484Z,1.31
2017-01-15T07:31:29.232Z,1.34
2017-01-15T07:32:30.001Z,1.34
2017-01-15T07:33:30.815Z,1.3
2017-01-15T07:34:31.566Z,1.35
2017-01-15T07:35:32.322Z,1.32
2017-01-15T07:36:33.068Z,1.37
2017-01-15T07:37:33.812Z,1.44
2017-01-15T07:38:34.559Z,1.5
2017-01-15T07:39:35.315Z,1.45
2017-01-15T07:40:36.066Z,1.5
2017-01-15T07:41:36.802Z,1.48
2017-01-15T07:42:37.553Z,1.4
2017-01-15T07:43:38.305Z,1.52
2017-01-15T07:44:39.050Z,1.44
2017-01-15T07:45:39.787Z,1.38
2017-01-15T07:46:40.560Z,1.35
2017-01-15T07:47:41.305Z,1.45
2017-01-15T07:48:42.047Z,1.44
2017-01-15T07:49:42.799Z,1.42
2017-01-15T07:50:43.541Z,1.5
2017-01-15T07:51:44.284Z,1.44
2017-01-15T07:52:45.038Z,1.49
2017-01-15T07:53:45.789Z,1.56
2017-01-15T07:54:46.557Z,1.53
2017-01-15T07:55:47.310Z,1.49
2017-01-15T07:56:48.048Z,1.5
2017-01-15T07:57:48.788Z,1.5
2017-01-15T07:58:49.525Z,1.52
2017-01-15T07:59:50.274Z,1.5
2017-01-15T08:00:51.030Z,1.53
2017-01-15T08:01:51.765Z,1.55
2017-01-15T08:02:52.518Z,1.59
2017-01-15T08:03:53.265Z,1.48
2017-01-15T08:04:54.007Z,1.62
2017-01-15T08:05:54.773Z,1.56
2017-01-15T08:06:55.529Z,1.59
2017-01-15T08:07:56.265Z,1.7
2017-01-15T08:08:57.027Z,1.62
2017-01-15T08:09:57.770Z,1.6
2017-01-15T08:10:58.538Z,1.68
2017-01-15T08:11:59.292Z,1.62
2017-01-15T08:13:00.065Z,1.66
2017-01-15T08:14:00.812Z,1.6
2017-01-15T08:15:01.565Z,1.67
2017-01-15T08:16:02.323Z,1.77
2017-01-15T08:17:03.071Z,1.7
2017-01-15T08:18:03.809Z,1.81
2017-01-15T08:19:04.565Z,1.78
2017-01-15T08:20:05.303Z,1.85
2017-01-15T08:21:06.071Z,1.84
2017-01-15T08:22:06.816Z,1.81
2017-01-15T08:23:07.563Z,1.84
2017-01-15T08:24:08.306Z,1.84
2017-01-15T08:25:09.057Z,1.85
2017-01-15T08:26:09.858Z,1.84
2017-01-15T08:27:10.608Z,1.73
2017-01-15T08:28:11.378Z,1.85
2017-01-15T08:29:12.117Z,1.84
2017-01-15T08:30:12.864Z,1.84
2017-01-15T08:31:13.621Z,1.77
2017-01-15T08:32:14.353Z,1.8
2017-01-15T08:33:15.249Z,1.85
2017-01-15T08:34:15.990Z,1.78
2017-01-15T08:35:16.737Z,1.73
2017-01-15T08:36:17.483Z,1.89
2017-01-15T08:37:18.241Z,1.91
2017-01-15T08:38:18.989Z,1.89
2017-01-15T08:39:19.764Z,1.81
2017-01-15T08:40:20.539Z,1.97
2017-01-15T08:41:21.294Z,1.91
2017-01-15T08:42:22.059Z,1.94
2017-01-15T08:43:22.843Z,1.95
2017-01-15T08:44:23.620Z,1.89
2017-01-15T08:45:24.375Z,1.95
2017-01-15T08:46:25.709Z,1.97
2017-01-15T08:47:26.459Z,2
2017-01-15T08:48:27.225Z,2.13
2017-01-15T08:49:27.993Z,2.04
2017-01-15T08:50:28.745Z,2.06
2017-01-15T08:51:29.502Z,2.04
2017-01-15T08:52:30.257Z,2.11
2017-01-15T08:53:30.999Z,2.13
2017-01-15T08:54:31.800Z,2.11
2017-01-15T08:55:32.547Z,2.14
2017-01-15T08:56:33.288Z,2.13
2017-01-15T08:57:34.035Z,2.14
2017-01-15T08:58:34.796Z,2.11
2017-01-15T08:59:35.613Z,2.02
2017-01-15T09:00:36.413Z,2.07
2017-01-15T09:01:37.144Z,2.08
2017-01-15T09:02:37.914Z,2.08
2017-01-15T09:03:38.705Z,2.1
2017-01-15T09:04:39.462Z,2.14
2017-01-15T09:05:40.285Z,2.14
2017-01-15T09:06:41.037Z,2.08
2017-01-15T09:07:41.790Z,2.13
2017-01-15T09:08:42.586Z,2.1
2017-01-15T09:09:43.352Z,2.11
2017-01-15T09:10:44.108Z,2.13
2017-01-15T09:11:44.861Z,2.1
2017-01-15T09:12:45.661Z,2.1
2017-01-15T09:13:46.430Z,2.13
2017-01-15T09:14:47.205Z,2.25
2017-01-15T09:15:47.935Z,2.28
2017-01-15T09:16:48.709Z,2.15
2017-01-15T09:17:49.462Z,2.24
2017-01-15T09:18:50.221Z,2.2
2017-01-15T09:19:50.976Z,2.2
2017-01-15T09:20:51.746Z,2.2
2017-01-15T09:21:52.503Z,2.2
2017-01-15T09:22:53.259Z,2.13
2017-01-15T09:23:54.003Z,2.17
2017-01-15T09:24:54.755Z,2.2
2017-01-15T09:25:55.500Z,2.13
2017-01-15T09:26:56.243Z,2.14
2017-01-15T09:27:57.016Z,2.13
2017-01-15T09:28:57.755Z,2.15
2017-01-15T09:29:58.496Z,2.11
2017-01-15T09:30:59.264Z,2.2
2017-01-15T09:32:00.030Z,2.2
2017-01-15T09:33:00.795Z,2.11
2017-01-15T09:34:01.584Z,2.18
2017-01-15T09:35:02.310Z,2.22
2017-01-15T09:36:03.078Z,2.25
2017-01-15T09:37:03.825Z,2.28
2017-01-15T09:38:04.564Z,2.32
2017-01-15T09:39:05.331Z,2.29
2017-01-15T09:40:06.113Z,2.33
2017-01-15T09:41:06.858Z,2.32
2017-01-15T09:42:07.611Z,2.33
2017-01-15T09:43:08.382Z,2.26
2017-01-15T09:44:09.146Z,2.35
2017-01-15T09:45:09.918Z,2.33
2017-01-15T09:46:11.427Z,2.31
2017-01-15T09:47:12.113Z,2.25
2017-01-15T09:48:12.869Z,2.25
2017-01-15T09:49:13.642Z,2.31
2017-01-15T09:50:14.464Z,2.28
2017-01-15T09:51:15.163Z,2.25
2017-01-15T09:52:15.919Z,2.31
2017-01-15T09:53:16.681Z,2.38
2017-01-15T09:54:17.448Z,2.44
2017-01-15T09:55:18.230Z,2.38
2017-01-15T09:56:19.121Z,2.39
2017-01-15T09:57:19.985Z,2.33
2017-01-15T09:58:20.764Z,2.39
2017-01-15T09:59:21.520Z,2.42
2017-01-15T10:00:22.465Z,2.46
2017-01-15T10:01:23.302Z,2.47
2017-01-15T10:02:24.201Z,2.46
2017-01-15T10:03:24.903Z,2.44
2017-01-15T10:04:25.699Z,2.5
2017-01-15T10:05:26.476Z,2.42
2017-01-15T10:06:27.248Z,2.44
2017-01-15T10:07:28.369Z,2.56
2017-01-15T10:08:29.146Z,2.49
2017-01-15T10:09:30.040Z,2.38
2017-01-15T10:10:30.819Z,2.35
2017-01-15T10:11:31.599Z,2.47
2017-01-15T10:12:32.373Z,2.44
2017-01-15T10:13:33.138Z,2.43
2017-01-15T10:14:33.939Z,2.49
2017-01-15T10:15:34.748Z,2.44
2017-01-15T10:16:35.530Z,2.39
2017-01-15T10:17:36.399Z,2.39
2017-01-15T10:18:37.098Z,2.42
2017-01-15T10:19:37.872Z,2.46
2017-01-15T10:20:38.650Z,2.56
2017-01-15T10:21:39.385Z,2.51
2017-01-15T10:22:40.134Z,2.53
2017-01-15T10:23:40.992Z,2.54
2017-01-15T10:24:42.471Z,2.44
2017-01-15T10:25:43.197Z,2.46
2017-01-15T10:26:44.281Z,2.44
2017-01-15T10:27:45.095Z,2.46
2017-01-15T10:28:45.802Z,2.51
2017-01-15T10:29:46.601Z,2.36
2017-01-15T10:30:47.499Z,2.53
2017-01-15T10:31:48.397Z,2.53
2017-01-15T10:32:49.153Z,2.57
2017-01-15T10:33:49.923Z,2.67
2017-01-15T10:34:50.773Z,2.6
2017-01-15T10:35:51.560Z,2.54
2017-01-15T10:36:52.329Z,2.64
2017-01-15T10:37:53.095Z,2.79
2017-01-15T10:38:53.886Z,2.57
2017-01-15T10:39:54.649Z,2.64
2017-01-15T10:40:55.412Z,2.69
2017-01-15T10:41:56.214Z,2.62
2017-01-15T10:42:57.074Z,2.77
2017-01-15T10:43:57.869Z,2.64
2017-01-15T10:44:58.658Z,2.61
2017-01-15T10:45:59.439Z,2.67
2017-01-15T10:47:00.196Z,2.68
2017-01-15T10:48:00.961Z,2.62
2017-01-15T10:49:01.722Z,2.67
2017-01-15T10:50:02.474Z,2.62
2017-01-15T10:51:03.233Z,2.68
2017-01-15T10:52:03.998Z,2.71
2017-01-15T10:53:04.784Z,2.65
2017-01-15T10:54:05.529Z,2.72
2017-01-15T10:55:06.277Z,2.74
2017-01-15T10:56:07.033Z,2.77
2017-01-15T10:57:07.830Z,2.72
2017-01-15T10:58:08.566Z,2.77
2017-01-15T10:59:09.308Z,2.82
2017-01-15T11:00:10.087Z,2.71
2017-01-15T11:01:10.851Z,2.72
2017-01-15T11:02:11.591Z,2.75
2017-01-15T11:03:12.352Z,2.85
2017-01-15T11:04:13.105Z,2.75
2017-01-15T11:05:13.892Z,2.72
2017-01-15T11:06:14.651Z,2.79
2017-01-15T11:07:15.408Z,2.82
2017-01-15T11:08:16.178Z,2.89
2017-01-15T11:09:16.931Z,2.86
2017-01-15T11:10:17.688Z,2.93
2017-01-15T11:11:18.452Z,2.9
2017-01-15T11:12:19.206Z,2.92
2017-01-15T11:13:19.958Z,3.07
2017-01-15T11:14:20.713Z,3.16
2017-01-15T11:15:21.471Z,3.05
2017-01-15T11:16:22.214Z,3.14
2017-01-15T11:17:23.003Z,3.18
2017-01-15T11:18:23.753Z,3.29
2017-01-15T11:19:24.617Z,3.19
2017-01-15T11:20:25.403Z,3.28
2017-01-15T11:21:26.188Z,3.28
2017-01-15T11:22:26.977Z,3.32
2017-01-15T11:23:27.749Z,3.36
2017-01-15T11:24:28.514Z,3.37
2017-01-15T11:25:29.287Z,3.36
2017-01-15T11:26:30.039Z,3.45
2017-01-15T11:27:30.933Z,3.4
2017-01-15T11:28:31.684Z,3.36
2017-01-15T11:29:32.425Z,3.36
2017-01-15T11:30:33.186Z,3.32
2017-01-15T11:31:33.940Z,3.29
2017-01-15T11:32:34.697Z,3.36
2017-01-15T11:33:35.474Z,3.37
2017-01-15T11:34:36.230Z,3.18
2017-01-15T11:35:36.975Z,3.26
2017-01-15T11:36:37.719Z,3.31
2017-01-15T11:37:38.455Z,3.32
2017-01-15T11:38:39.224Z,3.36
2017-01-15T11:39:40.000Z,3.45
2017-01-15T11:40:40.888Z,3.51
2017-01-15T11:41:41.648Z,3.56
2017-01-15T11:42:42.431Z,3.53
2017-01-15T11:43:43.219Z,3.56
2017-01-15T11:44:44.005Z,3.69
2017-01-15T11:45:44.771Z,3.65
2017-01-15T11:46:45.508Z,3.73
2017-01-15T11:47:46.275Z,3.65
2017-01-15T11:48:47.013Z,3.66
2017-01-15T11:49:47.789Z,3.66
2017-01-15T11:50:48.530Z,3.66
2017-01-15T11:51:49.295Z,3.6
2017-01-15T11:52:50.044Z,3.73
2017-01-15T11:53:50.781Z,3.76
2017-01-15T11:54:51.570Z,3.77
2017-01-15T11:55:52.336Z,3.74
2017-01-15T11:56:53.092Z,3.76
2017-01-15T11:57:53.858Z,3.8
2017-01-15T11:58:54.598Z,3.74
2017-01-15T11:59:55.356Z,3.86
2017-01-15T12:00:56.109Z,3.81
2017-01-15T12:01:56.884Z,3.74
2017-01-15T12:02:57.642Z,3.77
2017-01-15T12:03:58.406Z,3.81
2017-01-15T12:04:59.165Z,3.78
2017-01-15T12:05:59.936Z,3.84
2017-01-15T12:07:00.692Z,3.81
2017-01-15T12:08:01.448Z,3.81
2017-01-15T12:09:02.210Z,3.68
2017-01-15T12:10:02.969Z,3.76
2017-01-15T12:11:03.719Z,3.68
2017-01-15T12:12:04.495Z,3.73
2017-01-15T12:13:05.245Z,3.74
2017-01-15T12:14:06.009Z,3.73
2017-01-15T12:15:06.767Z,3.74
2017-01-15T12:16:07.560Z,3.7
2017-01-15T12:17:08.352Z,3.66
2017-01-15T12:18:09.101Z,3.7
2017-01-15T12:19:09.869Z,3.8
2017-01-15T12:20:10.643Z,3.77
2017-01-15T12:21:11.424Z,3.83
2017-01-15T12:22:12.164Z,3.91
2017-01-15T12:23:12.902Z,3.94
2017-01-15T12:24:13.657Z,3.95
2017-01-15T12:25:14.430Z,3.91
2017-01-15T12:26:15.180Z,3.91
2017-01-15T12:27:15.936Z,3.98
2017-01-15T12:28:16.720Z,3.91
2017-01-15T12:29:17.477Z,3.96
2017-01-15T12:30:18.236Z,3.99
2017-01-15T12:31:18.974Z,3.98
2017-01-15T12:32:19.733Z,4.01
2017-01-15T12:33:20.493Z,3.91
2017-01-15T12:34:21.277Z,3.99
2017-01-15T12:35:22.029Z,3.99
2017-01-15T12:36:22.792Z,3.99
2017-01-15T12:37:23.532Z,4.01
2017-01-15T12:38:24.279Z,3.98
2017-01-15T12:39:25.063Z,3.83
2017-01-15T12:40:25.824Z,3.74
2017-01-15T12:41:26.568Z,3.65
2017-01-15T12:42:27.358Z,3.55
2017-01-15T12:43:28.126Z,3.51
2017-01-15T12:44:28.892Z,3.48
2017-01-15T12:45:29.667Z,3.45
2017-01-15T12:46:30.433Z,3.48
2017-01-15T12:47:31.196Z,3.53
2017-01-15T12:48:31.980Z,3.51
2017-01-15T12:49:32.744Z,3.53
2017-01-15T12:50:33.528Z,3.58
2017-01-15T12:51:34.305Z,3.51
2017-01-15T12:52:35.051Z,3.47
2017-01-15T12:53:35.815Z,3.5
2017-01-15T12:54:36.578Z,3.42
2017-01-15T12:55:37.348Z,3.41
2017-01-15T12:56:38.101Z,3.48
2017-01-15T12:57:38.861Z,3.51
2017-01-15T12:58:39.628Z,3.36
2017-01-15T12:59:40.383Z,3.28
2017-01-15T13:00:41.154Z,3.44
2017-01-15T13:01:42.109Z,3.34
2017-01-15T13:02:42.863Z,3.42
2017-01-15T13:03:43.635Z,3.47
2017-01-15T13:04:44.400Z,3.48
2017-01-15T13:05:45.187Z,3.59
2017-01-15T13:06:45.968Z,3.56
2017-01-15T13:07:46.851Z,3.63
2017-01-15T13:08:47.619Z,3.69
2017-01-15T13:09:48.344Z,3.55
2017-01-15T13:10:49.105Z,3.53
2017-01-15T13:11:49.867Z,3.66
2017-01-15T13:12:50.619Z,3.68
2017-01-15T13:13:51.380Z,3.59
2017-01-15T13:14:52.139Z,3.65
2017-01-15T13:15:52.901Z,3.59
2017-01-15T13:16:53.636Z,3.59
2017-01-15T13:17:54.394Z,3.66
2017-01-15T13:18:55.163Z,3.59
2017-01-15T13:19:55.913Z,3.65
2017-01-15T13:20:56.653Z,3.68
2017-01-15T13:21:57.425Z,3.59
2017-01-15T13:22:58.198Z,3.58
2017-01-15T13:23:58.951Z,3.34
2017-01-15T13:24:59.714Z,3.37
2017-01-15T13:26:00.501Z,3.37
2017-01-15T13:27:01.300Z,3.42
2017-01-15T13:28:02.088Z,3.4
2017-01-15T13:29:02.867Z,3.37
2017-01-15T13:30:03.589Z,3.36
2017-01-15T13:31:04.363Z,3.44
2017-01-15T13:32:05.124Z,3.36